Time;durP1;ratioP1;P1;durP2;ratioP2;P2;SDS_P1;SDS_P2;PMS_P1;PMS_P2;Temp;Humidity;BMP_temperature;BMP_pressure;BME280_temperature;BME280_humidity;BME280_pressure;Samples;Min_cycle;Max_cycle;Signal;HPM_P1;HPM_P2
2023/08/17 00:01:55;;;;;;;3.17;1.48;;;20.30;95.80;;;;;;6212026;23;20043;-79
2023/08/17 00:04:21;;;;;;;3.78;1.65;;;20.30;95.80;;;;;;6184013;23;20000;-79
2023/08/17 00:06:47;;;;;;;4.07;1.70;;;20.30;95.70;;;;;;6211949;23;20082;-79
2023/08/17 00:09:12;;;;;;;3.40;1.42;;;20.20;95.70;;;;;;6211453;23;20083;-78
2023/08/17 00:11:38;;;;;;;4.93;1.58;;;20.20;95.60;;;;;;6211787;23;20059;-78
2023/08/17 00:14:04;;;;;;;3.92;1.63;;;20.20;95.60;;;;;;6211284;23;20461;-80
2023/08/17 00:16:30;;;;;;;4.03;1.35;;;20.20;95.70;;;;;;6211660;23;20036;-78
2023/08/17 00:18:56;;;;;;;3.58;1.40;;;20.20;95.70;;;;;;6211276;23;20005;-78
2023/08/17 00:21:21;;;;;;;3.58;1.48;;;20.20;95.70;;;;;;6211170;23;20701;-79
2023/08/17 00:23:47;;;;;;;2.42;1.25;;;20.20;95.80;;;;;;6211697;23;20014;-78
2023/08/17 00:26:14;;;;;;;3.72;1.45;;;20.20;96.20;;;;;;6211602;23;20334;-78
2023/08/17 00:28:39;;;;;;;3.38;1.35;;;20.20;96.30;;;;;;6211406;23;19996;-79
2023/08/17 00:31:05;;;;;;;2.85;1.30;;;20.10;96.20;;;;;;6211276;23;20254;-80
2023/08/17 00:33:30;;;;;;;3.42;1.20;;;20.10;96.30;;;;;;6210832;23;19996;-79
2023/08/17 00:35:56;;;;;;;2.55;1.48;;;20.00;96.40;;;;;;6211824;23;20007;-79
2023/08/17 00:38:21;;;;;;;3.92;1.45;;;19.90;96.50;;;;;;6211005;23;20070;-79
2023/08/17 00:40:47;;;;;;;8.55;2.00;;;19.90;96.70;;;;;;6211832;23;20005;-79
2023/08/17 00:43:13;;;;;;;2.78;1.40;;;19.90;96.70;;;;;;6211076;23;20095;-80
2023/08/17 00:45:40;;;;;;;3.53;1.35;;;19.80;96.70;;;;;;6211380;23;20426;-80
2023/08/17 00:48:07;;;;;;;3.35;1.42;;;19.80;96.80;;;;;;6210481;23;20103;-80
2023/08/17 00:50:34;;;;;;;4.47;1.70;;;19.70;96.90;;;;;;6184638;23;20080;-80
2023/08/17 00:53:01;;;;;;;5.07;1.40;;;19.60;97.00;;;;;;6211243;23;20035;-79
2023/08/17 00:55:27;;;;;;;5.22;1.85;;;19.60;97.10;;;;;;6210970;23;20016;-79
2023/08/17 00:57:53;;;;;;;2.78;1.38;;;19.50;97.20;;;;;;6211402;23;20058;-78
2023/08/17 01:00:20;;;;;;;7.35;2.03;;;19.40;97.40;;;;;;6210919;23;20435;-79
2023/08/17 01:02:46;;;;;;;5.25;1.95;;;19.40;97.70;;;;;;6210578;23;20418;-78
2023/08/17 01:05:12;;;;;;;4.70;2.13;;;19.30;97.80;;;;;;6211043;23;19996;-78
2023/08/17 01:07:37;;;;;;;6.10;2.05;;;19.30;98.00;;;;;;6210969;23;20027;-78
2023/08/17 01:10:04;;;;;;;6.75;2.03;;;19.30;98.20;;;;;;6211108;23;20438;-79
2023/08/17 01:12:31;;;;;;;6.50;2.00;;;19.20;98.30;;;;;;6210996;23;19997;-79
2023/08/17 01:15:05;;;;;;;7.22;2.03;;;19.20;98.40;;;;;;6211569;23;20299;-80
2023/08/17 01:17:45;;;;;;;4.43;2.05;;;19.10;98.40;;;;;;6210287;23;20004;-79
2023/08/17 01:20:14;;;;;;;5.88;2.10;;;19.20;98.50;;;;;;6210999;23;20050;-79
2023/08/17 01:22:47;;;;;;;3.60;2.05;;;19.20;98.60;;;;;;6211432;23;20076;-79
2023/08/17 01:25:13;;;;;;;3.72;2.03;;;19.10;99.00;;;;;;6211031;23;20075;-78
2023/08/17 01:27:44;;;;;;;2.42;1.80;;;19.10;98.80;;;;;;6184209;23;20426;-79
2023/08/17 01:30:13;;;;;;;3.65;2.28;;;19.10;98.90;;;;;;6210525;23;20083;-79
2023/08/17 01:33:09;;;;;;;4.45;2.60;;;19.10;98.90;;;;;;6210090;23;20004;-79
2023/08/17 01:35:39;;;;;;;7.03;2.33;;;19.10;99.00;;;;;;6210867;23;20080;-78
2023/08/17 01:38:09;;;;;;;4.05;1.95;;;19.00;98.90;;;;;;6210698;23;20005;-79
2023/08/17 01:40:35;;;;;;;3.47;1.50;;;19.00;99.00;;;;;;6210927;23;20492;-79
2023/08/17 01:43:05;;;;;;;3.05;1.58;;;19.00;98.90;;;;;;6211016;23;20009;-79
2023/08/17 01:45:31;;;;;;;5.95;2.35;;;19.00;99.00;;;;;;6209809;23;20083;-78
2023/08/17 01:47:56;;;;;;;5.53;2.33;;;19.00;99.00;;;;;;6210971;23;20037;-79
2023/08/17 01:50:22;;;;;;;5.78;2.00;;;19.00;99.00;;;;;;6210187;23;20015;-79
2023/08/17 01:52:50;;;;;;;2.60;1.67;;;19.00;99.10;;;;;;6210999;23;20012;-79
2023/08/17 01:55:15;;;;;;;5.47;2.28;;;19.00;99.10;;;;;;6196149;23;20027;-80
2023/08/17 01:57:41;;;;;;;2.80;2.10;;;18.90;99.20;;;;;;6210952;23;20096;-79
2023/08/17 02:00:10;;;;;;;4.07;2.13;;;19.00;99.20;;;;;;6210020;23;19997;-79
2023/08/17 02:02:36;;;;;;;6.00;2.30;;;18.90;99.30;;;;;;6210501;23;20362;-79
2023/08/17 02:05:01;;;;;;;4.60;2.10;;;18.90;99.30;;;;;;6210571;23;20004;-79
2023/08/17 02:07:28;;;;;;;7.47;2.10;;;18.90;99.30;;;;;;6210385;23;20015;-79
2023/08/17 02:09:53;;;;;;;4.70;1.98;;;18.90;99.30;;;;;;6210930;23;20331;-79
2023/08/17 02:12:19;;;;;;;4.88;2.33;;;18.90;99.30;;;;;;6208230;23;20011;-78
2023/08/17 02:14:44;;;;;;;5.18;1.83;;;18.90;99.30;;;;;;6209490;23;20007;-78
2023/08/17 02:17:10;;;;;;;5.05;1.77;;;18.90;99.30;;;;;;6210156;23;20453;-79
2023/08/17 02:19:35;;;;;;;5.15;1.77;;;18.90;99.30;;;;;;6210414;23;20012;-79
2023/08/17 02:22:01;;;;;;;4.03;1.88;;;18.90;99.30;;;;;;6210398;23;20018;-79
2023/08/17 02:24:27;;;;;;;5.28;1.90;;;18.90;99.30;;;;;;6210475;23;20370;-79
2023/08/17 02:26:52;;;;;;;4.55;1.73;;;18.90;99.30;;;;;;6210562;23;20096;-79
2023/08/17 02:29:18;;;;;;;4.90;1.67;;;18.80;99.20;;;;;;6209668;23;20020;-79
2023/08/17 02:31:44;;;;;;;6.32;2.10;;;18.80;99.20;;;;;;6210384;23;20431;-79
2023/08/17 02:34:10;;;;;;;5.45;1.63;;;18.90;99.30;;;;;;6210495;23;20004;-79
2023/08/17 02:36:35;;;;;;;3.33;1.85;;;18.80;99.20;;;;;;6210044;23;20001;-79
2023/08/17 02:39:03;;;;;;;4.85;1.80;;;18.80;99.20;;;;;;6210019;23;20010;-79
2023/08/17 02:41:30;;;;;;;3.35;1.52;;;18.80;99.40;;;;;;6210443;23;20330;-78
2023/08/17 02:43:55;;;;;;;3.45;1.73;;;18.80;99.20;;;;;;6209940;23;19997;-79
2023/08/17 02:46:21;;;;;;;3.15;1.50;;;18.80;99.20;;;;;;6209941;23;20009;-79
2023/08/17 02:48:47;;;;;;;3.38;1.38;;;18.80;99.20;;;;;;6210453;23;20330;-79
2023/08/17 02:51:13;;;;;;;3.13;1.77;;;18.80;99.20;;;;;;6210051;23;20000;-79
2023/08/17 02:53:39;;;;;;;6.57;1.30;;;18.80;99.20;;;;;;6210448;23;20005;-79
2023/08/17 02:56:04;;;;;;;4.63;1.75;;;18.80;99.20;;;;;;6210240;23;20331;-78
2023/08/17 02:58:30;;;;;;;2.00;1.38;;;18.70;99.10;;;;;;6211041;23;20068;-79
2023/08/17 03:00:56;;;;;;;5.25;1.52;;;18.70;99.00;;;;;;6210537;23;20009;-78
2023/08/17 03:03:22;;;;;;;4.18;1.45;;;18.70;99.00;;;;;;6208851;23;20500;-78
2023/08/17 03:05:48;;;;;;;3.78;1.10;;;18.70;99.00;;;;;;6209836;23;20000;-79
2023/08/17 03:08:13;;;;;;;4.55;1.42;;;18.70;99.00;;;;;;6209805;23;20001;-79
2023/08/17 03:10:39;;;;;;;5.63;1.33;;;18.70;98.90;;;;;;6209933;23;20398;-78
2023/08/17 03:13:05;;;;;;;3.20;1.67;;;18.60;98.90;;;;;;6209306;23;20004;-79
2023/08/17 03:15:30;;;;;;;3.05;1.60;;;18.70;98.90;;;;;;6210136;23;20411;-79
2023/08/17 03:17:56;;;;;;;2.70;1.45;;;18.70;98.90;;;;;;6212247;23;20016;-80
2023/08/17 03:20:21;;;;;;;4.15;1.38;;;18.60;98.90;;;;;;6211669;23;20012;-79
2023/08/17 03:22:47;;;;;;;3.63;1.60;;;18.60;98.90;;;;;;6211930;23;20004;-79
2023/08/17 03:25:12;;;;;;;2.03;1.60;;;18.60;99.00;;;;;;6211822;23;20011;-79
2023/08/17 03:27:38;;;;;;;3.90;1.42;;;18.60;99.00;;;;;;6211112;23;20015;-79
2023/08/17 03:30:05;;;;;;;6.40;1.77;;;18.50;99.00;;;;;;6209654;23;20422;-78
2023/08/17 03:32:31;;;;;;;3.10;1.50;;;18.50;99.00;;;;;;6209898;23;20426;-80
2023/08/17 03:34:56;;;;;;;5.45;2.00;;;18.50;99.00;;;;;;6184031;23;20015;-78
2023/08/17 03:37:22;;;;;;;4.00;1.58;;;18.50;99.10;;;;;;6211562;23;20347;-79
2023/08/17 03:39:47;;;;;;;6.95;2.45;;;18.40;99.10;;;;;;6211929;23;20004;-79
2023/08/17 03:42:13;;;;;;;4.03;1.73;;;18.40;99.20;;;;;;6211336;23;20009;-79
2023/08/17 03:44:38;;;;;;;5.80;2.03;;;18.30;99.30;;;;;;6185197;23;20051;-79
2023/08/17 03:47:04;;;;;;;5.45;2.20;;;18.20;99.30;;;;;;6211371;23;20076;-79
2023/08/17 03:49:30;;;;;;;3.50;1.63;;;18.20;99.50;;;;;;6211798;23;20319;-79
2023/08/17 03:51:55;;;;;;;4.07;2.13;;;18.10;99.50;;;;;;6211900;23;20075;-79
2023/08/17 03:54:21;;;;;;;5.00;2.08;;;18.10;99.60;;;;;;6211220;23;20012;-79
2023/08/17 03:56:46;;;;;;;4.55;1.67;;;18.00;99.70;;;;;;6211703;23;20013;-79
2023/08/17 03:59:12;;;;;;;5.97;2.30;;;18.00;99.80;;;;;;6211823;23;20028;-79
2023/08/17 04:01:37;;;;;;;5.55;2.20;;;18.00;99.90;;;;;;6211641;23;20080;-79
2023/08/17 04:04:03;;;;;;;5.70;1.70;;;17.90;99.90;;;;;;6211817;23;20051;-79
2023/08/17 04:06:29;;;;;;;2.90;1.75;;;17.90;99.90;;;;;;6211823;23;19997;-79
2023/08/17 04:08:54;;;;;;;4.43;2.28;;;17.80;99.90;;;;;;6211616;23;20327;-77
2023/08/17 04:11:20;;;;;;;6.13;2.53;;;17.80;99.90;;;;;;6210707;23;20123;-78
2023/08/17 04:13:45;;;;;;;3.80;1.73;;;17.80;99.90;;;;;;6211613;23;20000;-78
2023/08/17 04:16:11;;;;;;;4.65;2.00;;;17.70;99.90;;;;;;6211851;23;20007;-78
2023/08/17 04:18:36;;;;;;;7.60;2.17;;;17.70;99.90;;;;;;6211544;23;20008;-78
2023/08/17 04:21:02;;;;;;;4.57;1.65;;;17.70;99.90;;;;;;6211641;23;20071;-78
2023/08/17 04:23:28;;;;;;;6.90;2.53;;;17.70;99.90;;;;;;6211934;23;20012;-79
2023/08/17 04:25:54;;;;;;;5.93;2.20;;;17.60;99.90;;;;;;6184573;23;20004;-78
2023/08/17 04:28:20;;;;;;;5.97;2.42;;;17.60;99.90;;;;;;6210843;23;20462;-79
2023/08/17 04:30:45;;;;;;;2.83;1.90;;;17.60;99.90;;;;;;6211773;23;20001;-78
2023/08/17 04:33:12;;;;;;;3.42;2.20;;;17.60;99.90;;;;;;6211425;23;20000;-78
2023/08/17 04:35:38;;;;;;;6.18;2.08;;;17.60;99.90;;;;;;6211380;23;20048;-78
2023/08/17 04:38:04;;;;;;;6.05;2.17;;;17.60;99.90;;;;;;6211360;23;20013;-78
2023/08/17 04:40:30;;;;;;;5.80;2.03;;;17.60;99.90;;;;;;6211118;23;20330;-79
2023/08/17 04:42:55;;;;;;;7.00;2.50;;;17.60;99.90;;;;;;6211558;23;20001;-78
2023/08/17 04:45:21;;;;;;;4.93;1.95;;;17.60;99.90;;;;;;6211046;23;20454;-79
2023/08/17 04:47:47;;;;;;;2.55;1.48;;;17.60;99.90;;;;;;6184795;23;20012;-78
2023/08/17 04:50:16;;;;;;;6.03;2.25;;;17.60;99.90;;;;;;6211243;23;20086;-78
2023/08/17 04:52:43;;;;;;;4.15;1.75;;;17.60;99.90;;;;;;6211426;23;20007;-78
2023/08/17 04:55:13;;;;;;;5.47;2.00;;;17.60;99.90;;;;;;6210796;23;20115;-77
2023/08/17 04:57:39;;;;;;;4.00;1.92;;;17.60;99.90;;;;;;6210889;23;20009;-78
2023/08/17 05:00:09;;;;;;;6.05;1.80;;;17.60;99.90;;;;;;6211118;23;20011;-79
2023/08/17 05:02:35;;;;;;;7.93;2.53;;;17.60;99.90;;;;;;6210992;23;20012;-78
2023/08/17 05:05:02;;;;;;;3.70;1.77;;;17.60;99.90;;;;;;6211320;23;20015;-79
2023/08/17 05:07:27;;;;;;;2.72;1.65;;;17.60;99.90;;;;;;6210899;23;20028;-78
2023/08/17 05:09:53;;;;;;;4.82;1.65;;;17.60;99.90;;;;;;6210771;23;20032;-79
2023/08/17 05:12:18;;;;;;;5.22;1.77;;;17.70;99.90;;;;;;6210665;23;20008;-78
2023/08/17 05:14:44;;;;;;;4.15;1.58;;;17.70;99.90;;;;;;6210770;23;20007;-78
2023/08/17 05:17:09;;;;;;;3.60;1.55;;;17.70;99.90;;;;;;6210771;23;20009;-79
2023/08/17 05:19:35;;;;;;;6.05;2.40;;;17.70;99.90;;;;;;6210615;23;20071;-79
2023/08/17 05:22:01;;;;;;;6.55;2.53;;;17.70;99.90;;;;;;6211190;23;20028;-79
2023/08/17 05:24:26;;;;;;;2.72;1.35;;;17.70;99.90;;;;;;6210279;23;20001;-79
2023/08/17 05:26:53;;;;;;;5.35;1.42;;;17.70;99.90;;;;;;6210844;23;20048;-79
2023/08/17 05:29:19;;;;;;;4.10;2.03;;;17.70;99.90;;;;;;6210592;23;20005;-79
2023/08/17 05:31:44;;;;;;;3.05;1.60;;;17.70;99.90;;;;;;6211075;23;20007;-79
2023/08/17 05:34:10;;;;;;;5.63;1.67;;;17.80;99.90;;;;;;6210862;23;19997;-79
2023/08/17 05:36:36;;;;;;;5.47;1.30;;;17.80;99.90;;;;;;6210975;23;20059;-79
2023/08/17 05:39:02;;;;;;;6.82;1.95;;;17.80;99.90;;;;;;6210267;23;20032;-78
2023/08/17 05:41:28;;;;;;;3.47;1.98;;;17.80;99.90;;;;;;6211027;23;20024;-79
2023/08/17 05:43:53;;;;;;;5.32;1.60;;;17.90;99.90;;;;;;6211066;23;19997;-79
2023/08/17 05:46:19;;;;;;;2.75;1.35;;;17.90;99.90;;;;;;6210300;23;20000;-79
2023/08/17 05:48:44;;;;;;;5.90;1.73;;;18.00;99.90;;;;;;6210916;23;20076;-78
2023/08/17 05:51:10;;;;;;;5.30;1.48;;;18.00;99.90;;;;;;6210495;23;20000;-78
2023/08/17 05:53:35;;;;;;;3.58;1.40;;;18.10;99.90;;;;;;6210137;23;20050;-79
2023/08/17 05:56:01;;;;;;;4.30;1.90;;;18.20;99.90;;;;;;6210637;23;20020;-78
2023/08/17 05:58:27;;;;;;;7.22;2.10;;;18.30;99.90;;;;;;6210754;23;20377;-78
2023/08/17 06:00:52;;;;;;;11.00;2.50;;;18.30;99.90;;;;;;6210514;23;20015;-79
2023/08/17 06:03:18;;;;;;;4.38;2.28;;;18.40;99.90;;;;;;6183410;23;20005;-78
2023/08/17 06:05:44;;;;;;;4.35;1.98;;;18.40;99.90;;;;;;6184094;23;20001;-78
2023/08/17 06:08:09;;;;;;;7.13;2.65;;;18.50;99.90;;;;;;6209727;23;20453;-77
2023/08/17 06:10:35;;;;;;;5.22;1.60;;;18.60;99.90;;;;;;6210581;23;20083;-78
2023/08/17 06:13:01;;;;;;;4.22;1.95;;;18.60;99.90;;;;;;6210684;23;20000;-78
2023/08/17 06:15:26;;;;;;;4.20;1.77;;;18.60;99.90;;;;;;6210556;23;20000;-78
2023/08/17 06:17:52;;;;;;;5.88;1.90;;;18.70;99.90;;;;;;6210761;23;20005;-78
2023/08/17 06:20:18;;;;;;;7.78;2.85;;;18.80;99.90;;;;;;6210075;23;20001;-78
2023/08/17 06:22:44;;;;;;;8.23;1.98;;;18.90;99.90;;;;;;6210422;23;20005;-79
2023/08/17 06:25:10;;;;;;;1.67;1.10;;;19.00;99.90;;;;;;6210038;23;20004;-78
2023/08/17 06:27:36;;;;;;;5.32;1.42;;;19.10;99.90;;;;;;6210390;23;20012;-78
2023/08/17 06:30:03;;;;;;;5.47;1.40;;;19.20;99.90;;;;;;6210209;23;20004;-78
2023/08/17 06:32:30;;;;;;;2.55;1.25;;;19.30;99.90;;;;;;6210381;23;20015;-78
2023/08/17 06:34:55;;;;;;;5.72;2.03;;;19.50;99.90;;;;;;6183841;23;20009;-78
2023/08/17 06:37:21;;;;;;;4.95;2.03;;;19.60;99.60;;;;;;6182785;23;20567;-78
2023/08/17 06:39:46;;;;;;;3.30;1.75;;;19.60;99.30;;;;;;6210895;23;20005;-78
2023/08/17 06:42:12;;;;;;;5.63;1.70;;;19.60;99.20;;;;;;6183920;23;20012;-77
2023/08/17 06:44:37;;;;;;;4.80;1.88;;;19.60;99.10;;;;;;6210274;23;20713;-78
2023/08/17 06:47:03;;;;;;;5.30;2.03;;;19.50;99.00;;;;;;6210144;23;20371;-78
2023/08/17 06:49:30;;;;;;;5.00;2.33;;;19.60;98.90;;;;;;6210303;23;19997;-78
2023/08/17 06:51:55;;;;;;;3.83;1.75;;;19.50;98.80;;;;;;6210083;23;20008;-78
2023/08/17 06:54:21;;;;;;;4.60;1.83;;;19.50;98.90;;;;;;6209313;23;20021;-77
2023/08/17 06:56:46;;;;;;;4.80;1.25;;;19.50;98.80;;;;;;6210522;23;20083;-78
2023/08/17 06:59:12;;;;;;;5.30;1.95;;;19.50;98.90;;;;;;6209899;23;20058;-78
2023/08/17 07:01:37;;;;;;;4.45;1.55;;;19.50;98.80;;;;;;6181061;23;20051;-77
2023/08/17 07:04:03;;;;;;;3.15;2.00;;;19.50;98.80;;;;;;6209811;23;20498;-78
2023/08/17 07:06:29;;;;;;;3.90;1.80;;;19.60;98.80;;;;;;6209201;23;19993;-78
2023/08/17 07:08:54;;;;;;;3.90;1.75;;;19.60;98.70;;;;;;6209981;23;20001;-78
2023/08/17 07:11:20;;;;;;;5.07;1.65;;;19.60;98.70;;;;;;6209513;23;19997;-78
2023/08/17 07:13:46;;;;;;;5.10;2.05;;;19.60;98.70;;;;;;6210570;23;20470;-77
2023/08/17 07:16:11;;;;;;;4.65;1.42;;;19.70;98.60;;;;;;6210089;23;20207;-78
2023/08/17 07:18:37;;;;;;;3.33;1.83;;;19.70;98.60;;;;;;6208510;23;20004;-78
2023/08/17 07:21:03;;;;;;;2.20;1.55;;;19.80;98.60;;;;;;6182779;23;20015;-78
2023/08/17 07:23:28;;;;;;;3.97;1.92;;;19.90;98.70;;;;;;6182982;23;20009;-78
2023/08/17 07:25:54;;;;;;;5.55;1.55;;;19.90;98.40;;;;;;6209943;23;20024;-78
2023/08/17 07:28:19;;;;;;;4.68;1.85;;;19.90;98.40;;;;;;6209704;23;20009;-78
2023/08/17 07:30:45;;;;;;;5.07;1.80;;;19.90;98.40;;;;;;6210428;23;20008;-78
2023/08/17 07:33:10;;;;;;;4.18;1.90;;;19.90;98.40;;;;;;6209902;23;20005;-78
2023/08/17 07:35:36;;;;;;;5.43;1.90;;;20.00;98.50;;;;;;6182908;23;20573;-79
2023/08/17 07:38:02;;;;;;;8.07;1.98;;;20.20;98.50;;;;;;6209411;23;20023;-78
2023/08/17 07:40:27;;;;;;;6.35;1.80;;;20.30;98.40;;;;;;6209847;23;20024;-78
2023/08/17 07:42:53;;;;;;;4.93;1.90;;;20.30;98.30;;;;;;6210517;23;20012;-78
2023/08/17 07:45:19;;;;;;;2.85;2.08;;;20.30;98.20;;;;;;6210564;23;20761;-78
2023/08/17 07:47:44;;;;;;;5.75;2.17;;;20.30;98.10;;;;;;6210887;23;20005;-79
2023/08/17 07:50:10;;;;;;;4.15;1.60;;;20.30;98.10;;;;;;6210118;23;19993;-79
2023/08/17 07:52:35;;;;;;;2.42;1.58;;;20.20;98.10;;;;;;6184307;23;20015;-79
2023/08/17 07:55:01;;;;;;;6.90;1.95;;;20.20;98.00;;;;;;6194201;23;20446;-79
2023/08/17 07:57:27;;;;;;;6.35;2.10;;;20.20;98.00;;;;;;6209431;23;20012;-79
2023/08/17 07:59:53;;;;;;;3.30;1.70;;;20.20;98.10;;;;;;6211295;23;20004;-79
2023/08/17 08:02:19;;;;;;;6.53;2.20;;;20.30;98.10;;;;;;6210598;23;19997;-79
2023/08/17 08:04:45;;;;;;;4.75;2.05;;;20.30;98.20;;;;;;6210190;23;20001;-78
2023/08/17 08:07:10;;;;;;;5.32;2.10;;;20.30;98.30;;;;;;6211286;23;20019;-79
2023/08/17 08:09:36;;;;;;;5.60;1.77;;;20.30;98.20;;;;;;6210954;23;20398;-78
2023/08/17 08:12:02;;;;;;;5.15;2.38;;;20.30;98.20;;;;;;6209718;23;20001;-79
2023/08/17 08:14:29;;;;;;;3.35;1.75;;;20.30;98.10;;;;;;6211518;23;20083;-79
2023/08/17 08:16:54;;;;;;;6.78;2.28;;;20.20;98.00;;;;;;6210213;23;20035;-78
2023/08/17 08:19:20;;;;;;;6.47;2.25;;;20.10;98.10;;;;;;6210011;23;19996;-79
2023/08/17 08:21:45;;;;;;;5.25;2.78;;;20.10;98.20;;;;;;6210919;23;20001;-79
2023/08/17 08:24:11;;;;;;;3.80;1.67;;;20.00;98.30;;;;;;6209790;23;20000;-80
2023/08/17 08:26:36;;;;;;;6.07;2.03;;;20.00;98.30;;;;;;6210620;23;20339;-79
2023/08/17 08:29:02;;;;;;;4.47;2.05;;;20.00;98.40;;;;;;6210501;23;20062;-79
2023/08/17 08:31:27;;;;;;;3.90;2.53;;;20.10;98.40;;;;;;6208826;23;20415;-79
2023/08/17 08:33:54;;;;;;;6.22;1.90;;;20.10;98.40;;;;;;6209719;23;20063;-79
2023/08/17 08:36:19;;;;;;;4.00;1.80;;;20.10;98.40;;;;;;6208710;23;20001;-79
2023/08/17 08:38:45;;;;;;;5.90;2.25;;;20.10;98.50;;;;;;6209535;23;20019;-79
2023/08/17 08:41:11;;;;;;;3.20;1.90;;;20.10;98.50;;;;;;6210660;23;20011;-79
2023/08/17 08:43:37;;;;;;;7.35;2.78;;;20.10;98.50;;;;;;6211074;23;20019;-79
2023/08/17 08:46:04;;;;;;;8.25;3.15;;;20.10;98.40;;;;;;6210612;23;20004;-79
2023/08/17 08:48:34;;;;;;;7.00;2.47;;;20.10;98.40;;;;;;6210885;23;20005;-79
2023/08/17 08:51:07;;;;;;;4.25;2.40;;;20.20;98.40;;;;;;6211238;23;20000;-79
2023/08/17 08:53:44;;;;;;;4.22;2.13;;;20.10;98.40;;;;;;6208590;23;20005;-79
2023/08/17 08:56:14;;;;;;;7.30;2.90;;;20.20;98.40;;;;;;6210428;23;20017;-79
2023/08/17 08:58:41;;;;;;;7.25;3.72;;;20.20;98.40;;;;;;6211115;23;20062;-78
2023/08/17 09:01:10;;;;;;;6.28;3.28;;;20.20;98.50;;;;;;6183113;23;20005;-78
2023/08/17 09:03:36;;;;;;;5.55;3.05;;;20.20;98.40;;;;;;6210000;23;20054;-79
2023/08/17 09:06:03;;;;;;;5.30;3.25;;;20.30;98.40;;;;;;6210140;23;20414;-79
2023/08/17 09:08:29;;;;;;;7.57;2.83;;;20.30;98.40;;;;;;6183966;23;20070;-77
2023/08/17 09:10:55;;;;;;;7.35;3.63;;;20.20;98.30;;;;;;6210459;23;20068;-79
2023/08/17 09:13:21;;;;;;;7.45;3.40;;;20.30;98.30;;;;;;6210276;23;20027;-79
2023/08/17 09:15:46;;;;;;;6.45;3.13;;;20.20;98.30;;;;;;6210169;23;20004;-79
2023/08/17 09:18:12;;;;;;;6.72;3.22;;;20.30;98.40;;;;;;6210190;23;20008;-78
2023/08/17 09:20:42;;;;;;;7.45;3.63;;;20.40;98.40;;;;;;6210195;23;20005;-78
2023/08/17 09:23:16;;;;;;;10.50;4.07;;;20.50;98.20;;;;;;6183752;23;20004;-80
2023/08/17 09:25:43;;;;;;;11.20;4.43;;;20.50;98.20;;;;;;6210972;23;20072;-79
2023/08/17 09:28:14;;;;;;;7.05;3.75;;;20.50;98.10;;;;;;6210452;23;20005;-79
2023/08/17 09:30:54;;;;;;;7.00;3.70;;;20.50;98.20;;;;;;6183587;23;20005;-80
2023/08/17 09:33:21;;;;;;;6.25;3.67;;;20.60;98.30;;;;;;6209972;23;19997;-79
2023/08/17 09:35:48;;;;;;;9.55;4.25;;;20.70;98.20;;;;;;6210341;23;20059;-79
2023/08/17 09:38:14;;;;;;;6.85;4.60;;;20.70;98.10;;;;;;6183895;23;20335;-79
2023/08/17 09:40:40;;;;;;;5.30;3.90;;;20.70;98.00;;;;;;6184180;23;20000;-79
2023/08/17 09:43:05;;;;;;;8.60;5.70;;;20.80;98.00;;;;;;6210471;23;20008;-79
2023/08/17 09:45:31;;;;;;;9.43;4.82;;;20.80;98.00;;;;;;6209791;23;20009;-79
2023/08/17 09:48:00;;;;;;;9.55;4.45;;;20.80;98.00;;;;;;6183575;23;20016;-79
2023/08/17 09:50:25;;;;;;;9.85;4.45;;;20.80;98.10;;;;;;6209768;23;20020;-79
2023/08/17 09:52:54;;;;;;;6.70;3.97;;;20.90;98.20;;;;;;6210232;23;20001;-79
2023/08/17 09:55:24;;;;;;;9.27;4.32;;;20.90;98.10;;;;;;6209265;23;20446;-78
2023/08/17 09:57:51;;;;;;;9.02;4.72;;;21.00;98.10;;;;;;6209179;23;20488;-78
2023/08/17 10:00:18;;;;;;;10.10;5.28;;;21.10;97.80;;;;;;6208953;23;20431;-78
2023/08/17 10:02:53;;;;;;;5.47;4.00;;;21.10;97.80;;;;;;6209775;23;20007;-78
2023/08/17 10:05:20;;;;;;;9.93;4.53;;;21.20;97.70;;;;;;6182607;23;20004;-78
2023/08/17 10:07:56;;;;;;;8.95;4.85;;;21.30;97.70;;;;;;6210352;23;20005;-78
2023/08/17 10:10:25;;;;;;;8.27;4.82;;;21.50;97.60;;;;;;6209845;23;20013;-78
2023/08/17 10:13:11;;;;;;;6.00;4.97;;;21.60;97.30;;;;;;6183206;23;20100;-78
2023/08/17 10:15:42;;;;;;;8.50;4.88;;;21.60;97.00;;;;;;6183597;23;20358;-78
2023/08/17 10:18:21;;;;;;;8.80;4.85;;;21.60;97.10;;;;;;6210104;23;20083;-79
2023/08/17 10:21:05;;;;;;;8.10;4.20;;;21.40;97.10;;;;;;6183949;23;20108;-78
2023/08/17 10:23:32;;;;;;;7.88;4.07;;;21.30;97.10;;;;;;6209832;23;20024;-78
2023/08/17 10:25:58;;;;;;;9.38;4.80;;;21.30;97.40;;;;;;6183899;23;20004;-79
2023/08/17 10:28:24;;;;;;;9.25;4.95;;;21.30;97.70;;;;;;6209594;23;20011;-78
2023/08/17 10:30:51;;;;;;;11.18;5.20;;;21.30;97.40;;;;;;6210230;23;20043;-78
2023/08/17 10:33:17;;;;;;;8.10;4.82;;;21.30;97.40;;;;;;6183028;23;20446;-78
2023/08/17 10:35:42;;;;;;;8.88;5.13;;;21.30;97.40;;;;;;6210403;23;20007;-80
2023/08/17 10:38:08;;;;;;;12.18;6.05;;;21.30;97.50;;;;;;6210105;23;20005;-79
2023/08/17 10:40:41;;;;;;;9.75;5.38;;;21.30;97.50;;;;;;6209879;23;20016;-78
2023/08/17 10:43:06;;;;;;;7.18;4.10;;;21.20;97.40;;;;;;6209800;23;20009;-78
2023/08/17 10:45:35;;;;;;;9.00;4.65;;;21.20;97.60;;;;;;6210228;23;20031;-78
2023/08/17 10:48:06;;;;;;;9.70;4.85;;;21.30;97.50;;;;;;6210562;23;20406;-78
2023/08/17 10:50:33;;;;;;;7.20;5.20;;;21.40;97.50;;;;;;6209772;23;20519;-78
2023/08/17 10:53:15;;;;;;;8.45;4.55;;;21.40;97.50;;;;;;6210258;23;20008;-78
2023/08/17 10:55:45;;;;;;;7.40;5.07;;;21.50;97.40;;;;;;6209880;23;20140;-78
2023/08/17 10:58:11;;;;;;;6.40;4.22;;;21.70;97.40;;;;;;6209542;23;20012;-78
2023/08/17 11:00:42;;;;;;;12.80;5.15;;;21.80;97.10;;;;;;6183325;23;20023;-77
2023/08/17 11:03:19;;;;;;;9.88;5.88;;;21.90;96.90;;;;;;6209722;23;20005;-78
2023/08/17 11:05:48;;;;;;;6.53;4.18;;;22.00;96.80;;;;;;6209808;23;20035;-78
2023/08/17 11:08:32;;;;;;;8.93;4.93;;;22.00;96.80;;;;;;6209636;23;20063;-78
2023/08/17 11:10:59;;;;;;;8.07;5.03;;;22.10;96.90;;;;;;6208998;23;20010;-78
2023/08/17 11:13:27;;;;;;;9.52;5.35;;;22.10;96.70;;;;;;6182685;23;20001;-79
2023/08/17 11:15:53;;;;;;;8.30;5.72;;;22.10;96.70;;;;;;6210277;23;20438;-78
2023/08/17 11:18:18;;;;;;;6.55;4.55;;;22.10;96.60;;;;;;6183280;23;20009;-77
2023/08/17 11:20:44;;;;;;;5.22;4.05;;;22.10;96.70;;;;;;6211482;23;20000;-77
2023/08/17 11:23:11;;;;;;;8.38;5.57;;;22.20;96.60;;;;;;6183798;23;20008;-77
2023/08/17 11:25:38;;;;;;;7.47;4.13;;;22.20;96.50;;;;;;6184437;23;20015;-77
2023/08/17 11:28:07;;;;;;;7.07;4.43;;;22.20;96.50;;;;;;6209772;23;20012;-77
2023/08/17 11:30:34;;;;;;;7.38;4.68;;;22.30;96.60;;;;;;6209608;23;20068;-77
2023/08/17 11:33:00;;;;;;;8.75;4.97;;;22.20;96.30;;;;;;6183793;23;20751;-77
2023/08/17 11:35:25;;;;;;;7.57;4.90;;;22.20;96.40;;;;;;6210725;23;20035;-77
2023/08/17 11:37:51;;;;;;;8.63;4.70;;;22.20;96.40;;;;;;6211796;23;20075;-77
2023/08/17 11:40:17;;;;;;;8.43;5.70;;;22.20;96.40;;;;;;6210086;23;20012;-78
2023/08/17 11:42:43;;;;;;;8.10;5.28;;;22.30;96.40;;;;;;6210442;23;20007;-77
2023/08/17 11:45:09;;;;;;;9.85;5.53;;;22.20;96.30;;;;;;6185115;23;20001;-77
2023/08/17 11:47:36;;;;;;;10.32;5.60;;;22.20;96.40;;;;;;6184244;23;20107;-77
2023/08/17 11:50:06;;;;;;;7.65;4.35;;;22.20;96.80;;;;;;6184525;23;20012;-76
2023/08/17 11:52:38;;;;;;;6.72;5.10;;;22.20;96.50;;;;;;6184492;23;20005;-77
2023/08/17 11:55:09;;;;;;;6.28;4.50;;;22.20;96.60;;;;;;6210231;23;20012;-76
2023/08/17 11:57:36;;;;;;;8.82;4.07;;;22.20;96.50;;;;;;6210873;23;20013;-77
2023/08/17 12:00:07;;;;;;;7.47;5.32;;;22.20;96.60;;;;;;6211191;23;20335;-77
2023/08/17 12:02:37;;;;;;;6.18;4.50;;;22.20;96.60;;;;;;6211233;23;20496;-77
2023/08/17 12:05:06;;;;;;;7.00;4.28;;;22.20;96.60;;;;;;6209702;23;20083;-76
2023/08/17 12:07:32;;;;;;;6.03;3.92;;;22.10;96.60;;;;;;6211022;23;20001;-77
2023/08/17 12:09:58;;;;;;;7.78;4.03;;;22.20;96.60;;;;;;6209836;23;20076;-76
2023/08/17 12:12:23;;;;;;;5.25;4.05;;;22.20;96.60;;;;;;6210938;23;20086;-77
2023/08/17 12:14:49;;;;;;;7.85;4.28;;;22.20;96.70;;;;;;6185401;23;20011;-77
2023/08/17 12:17:19;;;;;;;6.30;3.90;;;22.20;96.60;;;;;;6209906;23;20893;-76
2023/08/17 12:19:49;;;;;;;5.25;4.03;;;22.30;96.70;;;;;;6211292;23;20373;-77
2023/08/17 12:22:16;;;;;;;8.38;4.55;;;22.30;96.60;;;;;;6210775;23;20370;-76
2023/08/17 12:24:42;;;;;;;6.93;4.63;;;22.20;96.50;;;;;;6210566;23;20319;-76
2023/08/17 12:27:08;;;;;;;7.47;4.47;;;22.20;96.70;;;;;;6210472;23;20007;-77
2023/08/17 12:29:33;;;;;;;8.02;4.40;;;22.20;96.80;;;;;;6184207;23;20016;-77
2023/08/17 12:32:04;;;;;;;7.20;5.60;;;22.20;96.80;;;;;;6210017;23;20000;-77
2023/08/17 12:34:29;;;;;;;6.93;4.82;;;22.20;96.70;;;;;;6211076;23;19992;-77
2023/08/17 12:36:55;;;;;;;4.80;3.58;;;22.20;96.80;;;;;;6183743;23;20066;-77
2023/08/17 12:39:21;;;;;;;6.45;4.72;;;22.20;96.80;;;;;;6183597;23;20008;-77
2023/08/17 12:41:46;;;;;;;6.47;5.32;;;22.20;96.80;;;;;;6211252;23;20008;-77
2023/08/17 12:44:13;;;;;;;9.65;5.70;;;22.20;96.80;;;;;;6210128;23;20125;-77